sensor_id;sensor_type;location;lat;lon;timestamp;pressure;altitude;pressure_sealevel;temperature;humidity
77120;BME280;66073;47.730;9.352;2023-07-29T00:01:59;96463.31;;;18.16;85.12
77120;BME280;66073;47.730;9.352;2023-07-29T00:04:25;96454.75;;;18.14;85.17
77120;BME280;66073;47.730;9.352;2023-07-29T00:06:50;96451.69;;;17.95;85.64
77120;BME280;66073;47.730;9.352;2023-07-29T00:09:16;96450.91;;;17.95;85.95
77120;BME280;66073;47.730;9.352;2023-07-29T00:11:41;96442.22;;;18.10;84.62
77120;BME280;66073;47.730;9.352;2023-07-29T00:14:07;96443.16;;;18.14;85.06
77120;BME280;66073;47.730;9.352;2023-07-29T00:16:32;96442.50;;;18.17;84.96
77120;BME280;66073;47.730;9.352;2023-07-29T00:18:58;96431.69;;;18.17;85.86
77120;BME280;66073;47.730;9.352;2023-07-29T00:21:23;96428.28;;;18.08;86.03
77120;BME280;66073;47.730;9.352;2023-07-29T00:23:49;96433.25;;;17.97;86.65
77120;BME280;66073;47.730;9.352;2023-07-29T00:26:14;96432.75;;;18.04;86.93
77120;BME280;66073;47.730;9.352;2023-07-29T00:28:40;96433.16;;;18.35;85.82
77120;BME280;66073;47.730;9.352;2023-07-29T00:31:05;96430.28;;;18.61;82.91
77120;BME280;66073;47.730;9.352;2023-07-29T00:33:31;96419.97;;;18.33;84.34
77120;BME280;66073;47.730;9.352;2023-07-29T00:35:56;96428.41;;;18.11;85.95
77120;BME280;66073;47.730;9.352;2023-07-29T00:38:22;96418.53;;;18.15;85.79
77120;BME280;66073;47.730;9.352;2023-07-29T00:40:47;96404.69;;;18.17;85.91
77120;BME280;66073;47.730;9.352;2023-07-29T00:43:13;96407.94;;;18.02;86.28
77120;BME280;66073;47.730;9.352;2023-07-29T00:45:39;96409.53;;;18.03;86.66
77120;BME280;66073;47.730;9.352;2023-07-29T00:48:06;96399.59;;;17.95;87.27
77120;BME280;66073;47.730;9.352;2023-07-29T00:50:32;96404.00;;;17.99;86.77
77120;BME280;66073;47.730;9.352;2023-07-29T00:52:59;96408.00;;;18.22;86.11
77120;BME280;66073;47.730;9.352;2023-07-29T00:55:24;96409.91;;;18.22;84.63
77120;BME280;66073;47.730;9.352;2023-07-29T00:57:51;96410.22;;;18.00;85.50
77120;BME280;66073;47.730;9.352;2023-07-29T01:00:20;96408.75;;;18.02;86.00
77120;BME280;66073;47.730;9.352;2023-07-29T01:02:45;96416.38;;;17.79;86.16
77120;BME280;66073;47.730;9.352;2023-07-29T01:05:13;96413.16;;;17.48;87.88
77120;BME280;66073;47.730;9.352;2023-07-29T01:07:51;96411.97;;;17.66;87.56
77120;BME280;66073;47.730;9.352;2023-07-29T01:13:30;96409.94;;;17.63;86.92
77120;BME280;66073;47.730;9.352;2023-07-29T01:16:11;96411.53;;;17.56;87.30
77120;BME280;66073;47.730;9.352;2023-07-29T01:18:39;96418.38;;;17.62;87.15
77120;BME280;66073;47.730;9.352;2023-07-29T01:21:08;96414.66;;;17.75;86.07
77120;BME280;66073;47.730;9.352;2023-07-29T01:23:35;96413.72;;;17.71;87.06
77120;BME280;66073;47.730;9.352;2023-07-29T01:26:03;96411.31;;;17.69;86.76
77120;BME280;66073;47.730;9.352;2023-07-29T01:28:30;96418.81;;;17.55;87.72
77120;BME280;66073;47.730;9.352;2023-07-29T01:31:12;96426.63;;;17.65;87.45
77120;BME280;66073;47.730;9.352;2023-07-29T01:33:52;96415.34;;;17.63;87.23
77120;BME280;66073;47.730;9.352;2023-07-29T01:36:21;96407.84;;;17.69;87.36
77120;BME280;66073;47.730;9.352;2023-07-29T01:38:49;96406.13;;;17.64;87.18
77120;BME280;66073;47.730;9.352;2023-07-29T01:41:17;96398.53;;;17.49;88.16
77120;BME280;66073;47.730;9.352;2023-07-29T01:43:44;96391.25;;;17.58;88.39
77120;BME280;66073;47.730;9.352;2023-07-29T01:46:15;96395.66;;;17.63;87.23
77120;BME280;66073;47.730;9.352;2023-07-29T01:48:41;96388.31;;;17.72;86.85
77120;BME280;66073;47.730;9.352;2023-07-29T01:51:07;96385.75;;;17.75;87.36
77120;BME280;66073;47.730;9.352;2023-07-29T01:53:33;96385.13;;;17.70;87.23
77120;BME280;66073;47.730;9.352;2023-07-29T01:55:58;96391.03;;;17.63;87.40
77120;BME280;66073;47.730;9.352;2023-07-29T01:58:24;96381.84;;;17.64;87.73
77120;BME280;66073;47.730;9.352;2023-07-29T02:00:50;96388.84;;;17.48;88.27
77120;BME280;66073;47.730;9.352;2023-07-29T02:03:16;96382.34;;;17.58;88.11
77120;BME280;66073;47.730;9.352;2023-07-29T02:05:41;96384.72;;;17.59;87.05
77120;BME280;66073;47.730;9.352;2023-07-29T02:08:11;96377.44;;;17.51;87.06
77120;BME280;66073;47.730;9.352;2023-07-29T02:10:36;96378.34;;;17.55;87.91
77120;BME280;66073;47.730;9.352;2023-07-29T02:13:03;96366.66;;;17.51;87.30
77120;BME280;66073;47.730;9.352;2023-07-29T02:15:28;96365.78;;;17.30;88.92
77120;BME280;66073;47.730;9.352;2023-07-29T02:17:54;96363.31;;;17.46;89.19
77120;BME280;66073;47.730;9.352;2023-07-29T02:20:19;96369.78;;;17.53;88.09
77120;BME280;66073;47.730;9.352;2023-07-29T02:22:45;96373.47;;;17.49;88.17
77120;BME280;66073;47.730;9.352;2023-07-29T02:25:11;96367.94;;;17.45;88.41
77120;BME280;66073;47.730;9.352;2023-07-29T02:27:36;96365.06;;;17.50;87.27
77120;BME280;66073;47.730;9.352;2023-07-29T02:30:02;96351.06;;;17.48;87.71
77120;BME280;66073;47.730;9.352;2023-07-29T02:32:28;96357.94;;;17.46;87.82
77120;BME280;66073;47.730;9.352;2023-07-29T02:34:53;96363.09;;;17.30;89.00
77120;BME280;66073;47.730;9.352;2023-07-29T02:37:19;96355.88;;;17.43;88.21
77120;BME280;66073;47.730;9.352;2023-07-29T02:39:45;96347.28;;;17.49;88.15
77120;BME280;66073;47.730;9.352;2023-07-29T02:42:10;96345.25;;;17.38;88.70
77120;BME280;66073;47.730;9.352;2023-07-29T02:44:36;96352.53;;;17.46;88.89
77120;BME280;66073;47.730;9.352;2023-07-29T02:47:01;96352.97;;;17.56;88.04
77120;BME280;66073;47.730;9.352;2023-07-29T02:49:27;96359.13;;;17.65;87.13
77120;BME280;66073;47.730;9.352;2023-07-29T02:51:52;96370.66;;;17.74;86.61
77120;BME280;66073;47.730;9.352;2023-07-29T02:54:18;96373.56;;;17.31;88.00
77120;BME280;66073;47.730;9.352;2023-07-29T02:56:43;96358.97;;;17.24;88.45
77120;BME280;66073;47.730;9.352;2023-07-29T02:59:09;96368.94;;;17.32;88.85
77120;BME280;66073;47.730;9.352;2023-07-29T03:01:34;96371.91;;;17.48;89.01
77120;BME280;66073;47.730;9.352;2023-07-29T03:04:00;96388.31;;;17.72;86.29
77120;BME280;66073;47.730;9.352;2023-07-29T03:06:26;96376.97;;;17.49;87.48
77120;BME280;66073;47.730;9.352;2023-07-29T03:08:51;96359.66;;;17.50;88.49
77120;BME280;66073;47.730;9.352;2023-07-29T03:11:17;96360.16;;;17.44;88.53
77120;BME280;66073;47.730;9.352;2023-07-29T03:13:43;96358.63;;;17.34;90.14
77120;BME280;66073;47.730;9.352;2023-07-29T03:16:09;96356.19;;;17.41;90.10
77120;BME280;66073;47.730;9.352;2023-07-29T03:18:36;96358.16;;;17.32;90.54
77120;BME280;66073;47.730;9.352;2023-07-29T03:21:02;96350.09;;;17.61;89.47
77120;BME280;66073;47.730;9.352;2023-07-29T03:23:29;96351.94;;;17.69;88.30
77120;BME280;66073;47.730;9.352;2023-07-29T03:25:56;96359.00;;;17.53;88.23
77120;BME280;66073;47.730;9.352;2023-07-29T03:28:33;96358.19;;;17.61;88.12
77120;BME280;66073;47.730;9.352;2023-07-29T03:30:59;96356.16;;;17.58;88.20
77120;BME280;66073;47.730;9.352;2023-07-29T03:33:25;96358.38;;;17.56;88.55
77120;BME280;66073;47.730;9.352;2023-07-29T03:35:52;96370.09;;;17.60;88.01
77120;BME280;66073;47.730;9.352;2023-07-29T03:38:18;96358.66;;;17.63;88.54
77120;BME280;66073;47.730;9.352;2023-07-29T03:40:44;96357.72;;;17.59;87.95
77120;BME280;66073;47.730;9.352;2023-07-29T03:43:09;96349.16;;;17.57;88.96
77120;BME280;66073;47.730;9.352;2023-07-29T03:45:35;96350.25;;;17.86;86.53
77120;BME280;66073;47.730;9.352;2023-07-29T03:48:02;96351.56;;;17.79;87.26
77120;BME280;66073;47.730;9.352;2023-07-29T03:50:28;96341.78;;;17.66;87.82
77120;BME280;66073;47.730;9.352;2023-07-29T03:52:55;96340.28;;;17.48;88.34
77120;BME280;66073;47.730;9.352;2023-07-29T03:55:21;96345.69;;;17.48;89.03
77120;BME280;66073;47.730;9.352;2023-07-29T03:57:46;96349.03;;;17.45;89.14
77120;BME280;66073;47.730;9.352;2023-07-29T04:00:12;96349.63;;;17.59;89.25
77120;BME280;66073;47.730;9.352;2023-07-29T04:02:38;96355.50;;;17.61;88.61
77120;BME280;66073;47.730;9.352;2023-07-29T04:05:05;96363.97;;;18.01;87.13
77120;BME280;66073;47.730;9.352;2023-07-29T04:07:31;96370.66;;;17.95;85.35
77120;BME280;66073;47.730;9.352;2023-07-29T04:09:57;96371.97;;;17.68;86.97
77120;BME280;66073;47.730;9.352;2023-07-29T04:12:24;96374.63;;;17.39;88.99
77120;BME280;66073;47.730;9.352;2023-07-29T04:14:49;96373.38;;;17.37;89.38
77120;BME280;66073;47.730;9.352;2023-07-29T04:17:15;96365.84;;;17.51;89.44
77120;BME280;66073;47.730;9.352;2023-07-29T04:19:41;96378.84;;;17.57;88.74
77120;BME280;66073;47.730;9.352;2023-07-29T04:22:06;96387.88;;;17.61;88.45
77120;BME280;66073;47.730;9.352;2023-07-29T04:24:32;96390.22;;;17.71;87.28
77120;BME280;66073;47.730;9.352;2023-07-29T04:26:58;96413.94;;;17.49;88.44
77120;BME280;66073;47.730;9.352;2023-07-29T04:29:24;96424.38;;;17.67;88.53
77120;BME280;66073;47.730;9.352;2023-07-29T04:31:50;96434.06;;;17.98;86.46
77120;BME280;66073;47.730;9.352;2023-07-29T04:34:15;96438.94;;;17.75;87.56
77120;BME280;66073;47.730;9.352;2023-07-29T04:36:41;96434.50;;;17.70;88.03
77120;BME280;66073;47.730;9.352;2023-07-29T04:39:06;96415.53;;;17.58;89.23
77120;BME280;66073;47.730;9.352;2023-07-29T04:41:33;96429.38;;;17.77;88.88
77120;BME280;66073;47.730;9.352;2023-07-29T04:43:58;96423.88;;;17.95;87.93
77120;BME280;66073;47.730;9.352;2023-07-29T04:46:23;96428.94;;;17.75;88.86
77120;BME280;66073;47.730;9.352;2023-07-29T04:48:49;96426.75;;;17.69;88.67
77120;BME280;66073;47.730;9.352;2023-07-29T04:51:14;96453.69;;;17.31;90.68
77120;BME280;66073;47.730;9.352;2023-07-29T04:53:40;96437.22;;;17.24;92.95
77120;BME280;66073;47.730;9.352;2023-07-29T04:56:05;96418.75;;;17.43;92.78
77120;BME280;66073;47.730;9.352;2023-07-29T04:58:31;96438.53;;;17.64;91.91
77120;BME280;66073;47.730;9.352;2023-07-29T05:01:00;96428.09;;;17.83;91.00
77120;BME280;66073;47.730;9.352;2023-07-29T05:03:26;96416.81;;;17.81;90.40
77120;BME280;66073;47.730;9.352;2023-07-29T05:05:52;96406.72;;;17.99;89.40
77120;BME280;66073;47.730;9.352;2023-07-29T05:08:19;96404.00;;;17.99;89.27
77120;BME280;66073;47.730;9.352;2023-07-29T05:10:48;96407.88;;;17.90;89.97
77120;BME280;66073;47.730;9.352;2023-07-29T05:13:15;96411.91;;;17.83;89.43
77120;BME280;66073;47.730;9.352;2023-07-29T05:15:40;96412.91;;;18.00;89.80
77120;BME280;66073;47.730;9.352;2023-07-29T05:18:06;96416.28;;;18.17;89.12
77120;BME280;66073;47.730;9.352;2023-07-29T05:20:31;96405.34;;;18.34;88.42
77120;BME280;66073;47.730;9.352;2023-07-29T05:22:56;96399.41;;;18.41;88.19
77120;BME280;66073;47.730;9.352;2023-07-29T05:25:22;96410.34;;;18.24;88.90
77120;BME280;66073;47.730;9.352;2023-07-29T05:27:47;96412.06;;;18.28;88.93
77120;BME280;66073;47.730;9.352;2023-07-29T05:30:13;96409.69;;;18.27;89.14
77120;BME280;66073;47.730;9.352;2023-07-29T05:32:38;96417.88;;;18.39;89.11
77120;BME280;66073;47.730;9.352;2023-07-29T05:35:04;96411.50;;;18.76;87.53
77120;BME280;66073;47.730;9.352;2023-07-29T05:37:29;96406.47;;;18.87;87.55
77120;BME280;66073;47.730;9.352;2023-07-29T05:39:55;96395.25;;;18.97;86.86
77120;BME280;66073;47.730;9.352;2023-07-29T05:42:20;96398.53;;;19.03;87.07
77120;BME280;66073;47.730;9.352;2023-07-29T05:44:46;96398.81;;;19.22;85.68
77120;BME280;66073;47.730;9.352;2023-07-29T05:47:11;96403.78;;;19.44;85.42
77120;BME280;66073;47.730;9.352;2023-07-29T05:49:37;96419.84;;;19.86;81.16
77120;BME280;66073;47.730;9.352;2023-07-29T05:52:02;96417.78;;;19.95;80.21
77120;BME280;66073;47.730;9.352;2023-07-29T05:54:28;96429.00;;;19.69;82.06
77120;BME280;66073;47.730;9.352;2023-07-29T05:56:53;96429.44;;;19.83;81.14
77120;BME280;66073;47.730;9.352;2023-07-29T05:59:19;96431.59;;;19.90;80.85
77120;BME280;66073;47.730;9.352;2023-07-29T06:01:44;96440.16;;;19.92;82.39
77120;BME280;66073;47.730;9.352;2023-07-29T06:04:10;96435.97;;;19.82;81.51
77120;BME280;66073;47.730;9.352;2023-07-29T06:06:35;96441.28;;;19.78;80.66
77120;BME280;66073;47.730;9.352;2023-07-29T06:09:00;96435.63;;;19.71;81.49
77120;BME280;66073;47.730;9.352;2023-07-29T06:11:26;96430.44;;;19.78;81.83
77120;BME280;66073;47.730;9.352;2023-07-29T06:13:51;96420.75;;;19.90;81.45
77120;BME280;66073;47.730;9.352;2023-07-29T06:16:17;96434.63;;;19.88;81.27
77120;BME280;66073;47.730;9.352;2023-07-29T06:18:42;96438.34;;;19.84;83.63
77120;BME280;66073;47.730;9.352;2023-07-29T06:21:08;96441.44;;;19.37;83.50
77120;BME280;66073;47.730;9.352;2023-07-29T06:23:36;96445.03;;;19.29;84.72
77120;BME280;66073;47.730;9.352;2023-07-29T06:26:02;96435.75;;;19.63;85.92
77120;BME280;66073;47.730;9.352;2023-07-29T06:28:27;96439.34;;;20.15;82.44
77120;BME280;66073;47.730;9.352;2023-07-29T06:30:53;96432.22;;;20.35;80.87
77120;BME280;66073;47.730;9.352;2023-07-29T06:33:18;96432.59;;;20.61;78.68
77120;BME280;66073;47.730;9.352;2023-07-29T06:35:44;96435.50;;;20.68;76.75
77120;BME280;66073;47.730;9.352;2023-07-29T06:38:09;96434.81;;;20.71;76.87
77120;BME280;66073;47.730;9.352;2023-07-29T06:40:35;96432.03;;;20.84;77.33
77120;BME280;66073;47.730;9.352;2023-07-29T06:43:00;96429.06;;;20.33;77.12
77120;BME280;66073;47.730;9.352;2023-07-29T06:45:26;96433.00;;;20.36;78.19
77120;BME280;66073;47.730;9.352;2023-07-29T06:47:51;96432.00;;;19.92;78.87
77120;BME280;66073;47.730;9.352;2023-07-29T06:50:17;96440.38;;;19.99;78.47
77120;BME280;66073;47.730;9.352;2023-07-29T06:52:42;96441.94;;;20.00;80.50
77120;BME280;66073;47.730;9.352;2023-07-29T06:55:08;96436.13;;;20.50;79.28
77120;BME280;66073;47.730;9.352;2023-07-29T06:57:34;96428.38;;;20.76;76.94
77120;BME280;66073;47.730;9.352;2023-07-29T06:59:59;96436.63;;;20.40;77.60
77120;BME280;66073;47.730;9.352;2023-07-29T07:02:25;96441.22;;;20.27;78.94
77120;BME280;66073;47.730;9.352;2023-07-29T07:04:50;96440.38;;;20.63;78.50
77120;BME280;66073;47.730;9.352;2023-07-29T07:07:16;96435.31;;;21.17;77.82
77120;BME280;66073;47.730;9.352;2023-07-29T07:09:41;96440.53;;;21.10;77.35
77120;BME280;66073;47.730;9.352;2023-07-29T07:12:07;96442.25;;;21.46;76.56
77120;BME280;66073;47.730;9.352;2023-07-29T07:14:33;96437.34;;;21.67;74.41
77120;BME280;66073;47.730;9.352;2023-07-29T07:16:58;96444.59;;;22.26;72.47
77120;BME280;66073;47.730;9.352;2023-07-29T07:19:24;96439.38;;;21.86;73.44
77120;BME280;66073;47.730;9.352;2023-07-29T07:21:49;96447.16;;;22.18;73.37
77120;BME280;66073;47.730;9.352;2023-07-29T07:24:15;96438.25;;;22.72;70.80
77120;BME280;66073;47.730;9.352;2023-07-29T07:26:40;96437.19;;;21.60;74.88
77120;BME280;66073;47.730;9.352;2023-07-29T07:29:05;96430.97;;;21.91;73.68
77120;BME280;66073;47.730;9.352;2023-07-29T07:31:33;96431.03;;;21.94;74.24
77120;BME280;66073;47.730;9.352;2023-07-29T07:33:59;96420.88;;;21.91;73.79
77120;BME280;66073;47.730;9.352;2023-07-29T07:36:26;96420.41;;;22.05;72.90
77120;BME280;66073;47.730;9.352;2023-07-29T07:38:51;96409.09;;;22.18;68.86
77120;BME280;66073;47.730;9.352;2023-07-29T07:41:16;96414.00;;;22.13;70.85
77120;BME280;66073;47.730;9.352;2023-07-29T07:43:42;96409.47;;;21.86;73.04
77120;BME280;66073;47.730;9.352;2023-07-29T07:46:07;96410.34;;;22.05;71.40
77120;BME280;66073;47.730;9.352;2023-07-29T07:48:33;96406.91;;;22.43;70.03
77120;BME280;66073;47.730;9.352;2023-07-29T07:50:58;96416.31;;;22.11;73.03
77120;BME280;66073;47.730;9.352;2023-07-29T07:53:24;96414.72;;;22.64;72.29
77120;BME280;66073;47.730;9.352;2023-07-29T07:55:51;96414.50;;;23.34;69.82
77120;BME280;66073;47.730;9.352;2023-07-29T07:58:16;96413.66;;;22.88;71.79
77120;BME280;66073;47.730;9.352;2023-07-29T08:00:42;96403.03;;;23.02;69.78
77120;BME280;66073;47.730;9.352;2023-07-29T08:03:08;96405.66;;;23.17;70.07
77120;BME280;66073;47.730;9.352;2023-07-29T08:05:33;96402.31;;;23.05;71.55
77120;BME280;66073;47.730;9.352;2023-07-29T08:07:59;96410.63;;;23.35;69.65
77120;BME280;66073;47.730;9.352;2023-07-29T08:10:24;96414.19;;;23.16;69.86
77120;BME280;66073;47.730;9.352;2023-07-29T08:12:50;96416.66;;;23.44;68.53
77120;BME280;66073;47.730;9.352;2023-07-29T08:15:15;96412.91;;;23.75;66.81
77120;BME280;66073;47.730;9.352;2023-07-29T08:17:41;96413.97;;;23.93;65.39
77120;BME280;66073;47.730;9.352;2023-07-29T08:20:07;96419.41;;;23.93;64.55
77120;BME280;66073;47.730;9.352;2023-07-29T08:22:32;96417.00;;;24.40;63.80
77120;BME280;66073;47.730;9.352;2023-07-29T08:24:58;96409.16;;;24.35;65.09
77120;BME280;66073;47.730;9.352;2023-07-29T08:27:23;96404.28;;;24.51;63.95
77120;BME280;66073;47.730;9.352;2023-07-29T08:29:48;96402.94;;;24.12;64.46
77120;BME280;66073;47.730;9.352;2023-07-29T08:32:14;96405.31;;;24.40;64.31
77120;BME280;66073;47.730;9.352;2023-07-29T08:34:39;96410.66;;;24.06;63.88
77120;BME280;66073;47.730;9.352;2023-07-29T08:37:05;96402.78;;;24.54;61.51
77120;BME280;66073;47.730;9.352;2023-07-29T08:39:31;96410.53;;;24.22;62.64
77120;BME280;66073;47.730;9.352;2023-07-29T08:42:04;96410.66;;;23.15;67.97
77120;BME280;66073;47.730;9.352;2023-07-29T08:44:43;96397.97;;;23.00;67.49
77120;BME280;66073;47.730;9.352;2023-07-29T08:47:09;96398.22;;;23.83;65.78
77120;BME280;66073;47.730;9.352;2023-07-29T08:49:36;96408.84;;;24.14;64.35
77120;BME280;66073;47.730;9.352;2023-07-29T08:52:04;96407.50;;;24.04;63.16
77120;BME280;66073;47.730;9.352;2023-07-29T08:54:30;96409.53;;;24.37;62.92
77120;BME280;66073;47.730;9.352;2023-07-29T08:56:56;96406.69;;;24.27;63.13
77120;BME280;66073;47.730;9.352;2023-07-29T08:59:23;96407.75;;;24.48;62.09
77120;BME280;66073;47.730;9.352;2023-07-29T09:01:49;96405.09;;;23.99;62.80
77120;BME280;66073;47.730;9.352;2023-07-29T09:04:14;96400.66;;;24.14;62.51
77120;BME280;66073;47.730;9.352;2023-07-29T09:06:43;96415.00;;;23.85;62.94
77120;BME280;66073;47.730;9.352;2023-07-29T09:09:09;96411.63;;;24.47;61.37
77120;BME280;66073;47.730;9.352;2023-07-29T09:11:35;96414.16;;;24.07;63.35
77120;BME280;66073;47.730;9.352;2023-07-29T09:14:00;96406.13;;;23.91;62.92
77120;BME280;66073;47.730;9.352;2023-07-29T09:16:26;96404.53;;;24.39;61.85
77120;BME280;66073;47.730;9.352;2023-07-29T09:18:52;96408.25;;;24.28;60.38
77120;BME280;66073;47.730;9.352;2023-07-29T09:21:22;96411.50;;;23.39;63.00
77120;BME280;66073;47.730;9.352;2023-07-29T09:23:50;96405.56;;;24.05;62.43
77120;BME280;66073;47.730;9.352;2023-07-29T09:26:26;96402.94;;;23.86;63.79
77120;BME280;66073;47.730;9.352;2023-07-29T09:28:57;96404.28;;;24.51;60.67
77120;BME280;66073;47.730;9.352;2023-07-29T09:31:24;96412.28;;;24.37;61.24
77120;BME280;66073;47.730;9.352;2023-07-29T09:33:58;96404.28;;;23.73;62.64
77120;BME280;66073;47.730;9.352;2023-07-29T09:36:25;96404.38;;;24.29;62.64
77120;BME280;66073;47.730;9.352;2023-07-29T09:38:55;96419.31;;;24.38;61.92
77120;BME280;66073;47.730;9.352;2023-07-29T09:41:27;96407.88;;;24.59;63.46
77120;BME280;66073;47.730;9.352;2023-07-29T09:43:58;96400.25;;;25.42;56.27
77120;BME280;66073;47.730;9.352;2023-07-29T09:46:25;96400.44;;;25.23;58.17
77120;BME280;66073;47.730;9.352;2023-07-29T09:48:56;96400.00;;;25.17;57.83
77120;BME280;66073;47.730;9.352;2023-07-29T09:51:22;96406.22;;;24.21;61.24
77120;BME280;66073;47.730;9.352;2023-07-29T09:53:50;96403.34;;;24.40;60.60
77120;BME280;66073;47.730;9.352;2023-07-29T09:56:16;96404.00;;;24.60;59.40
77120;BME280;66073;47.730;9.352;2023-07-29T09:58:45;96408.41;;;23.86;61.92
77120;BME280;66073;47.730;9.352;2023-07-29T10:01:11;96402.59;;;25.03;59.96
77120;BME280;66073;47.730;9.352;2023-07-29T10:03:37;96405.31;;;25.03;58.69
77120;BME280;66073;47.730;9.352;2023-07-29T10:06:04;96396.09;;;24.51;59.45
77120;BME280;66073;47.730;9.352;2023-07-29T10:08:31;96393.34;;;24.51;59.68
77120;BME280;66073;47.730;9.352;2023-07-29T10:11:08;96385.94;;;25.18;59.30
77120;BME280;66073;47.730;9.352;2023-07-29T10:13:34;96382.97;;;26.33;54.46
77120;BME280;66073;47.730;9.352;2023-07-29T10:16:00;96386.97;;;26.46;54.96
77120;BME280;66073;47.730;9.352;2023-07-29T10:18:30;96392.50;;;25.95;57.70
77120;BME280;66073;47.730;9.352;2023-07-29T10:20:57;96386.53;;;25.79;56.11
77120;BME280;66073;47.730;9.352;2023-07-29T10:23:25;96383.09;;;26.50;52.27
77120;BME280;66073;47.730;9.352;2023-07-29T10:26:11;96386.34;;;26.12;52.08
77120;BME280;66073;47.730;9.352;2023-07-29T10:28:41;96377.28;;;26.01;52.85
77120;BME280;66073;47.730;9.352;2023-07-29T10:31:10;96370.31;;;26.07;53.15
77120;BME280;66073;47.730;9.352;2023-07-29T10:33:38;96377.19;;;26.48;50.79
77120;BME280;66073;47.730;9.352;2023-07-29T10:36:05;96373.63;;;26.41;52.26
77120;BME280;66073;47.730;9.352;2023-07-29T10:38:31;96365.91;;;26.60;52.81
77120;BME280;66073;47.730;9.352;2023-07-29T10:40:57;96374.53;;;26.66;51.04
77120;BME280;66073;47.730;9.352;2023-07-29T10:43:36;96366.75;;;26.72;50.10
77120;BME280;66073;47.730;9.352;2023-07-29T10:46:16;96359.84;;;27.20;49.10
77120;BME280;66073;47.730;9.352;2023-07-29T10:51:30;96357.91;;;27.81;49.64
77120;BME280;66073;47.730;9.352;2023-07-29T10:54:02;96355.94;;;27.92;47.59
77120;BME280;66073;47.730;9.352;2023-07-29T10:56:35;96350.50;;;27.49;47.36
77120;BME280;66073;47.730;9.352;2023-07-29T11:01:57;96359.88;;;27.91;47.73
77120;BME280;66073;47.730;9.352;2023-07-29T11:04:29;96352.03;;;28.00;47.64
77120;BME280;66073;47.730;9.352;2023-07-29T11:12:47;96328.53;;;27.28;47.97
77120;BME280;66073;47.730;9.352;2023-07-29T11:17:49;96338.34;;;27.65;47.85
77120;BME280;66073;47.730;9.352;2023-07-29T11:20:17;96340.69;;;27.55;47.69
77120;BME280;66073;47.730;9.352;2023-07-29T11:22:43;96343.38;;;27.94;47.57
77120;BME280;66073;47.730;9.352;2023-07-29T11:25:11;96335.59;;;27.79;47.53
77120;BME280;66073;47.730;9.352;2023-07-29T11:27:38;96337.53;;;27.89;46.19
77120;BME280;66073;47.730;9.352;2023-07-29T11:30:11;96330.81;;;28.11;46.17
77120;BME280;66073;47.730;9.352;2023-07-29T11:32:39;96336.31;;;28.25;45.98
77120;BME280;66073;47.730;9.352;2023-07-29T11:35:12;96330.13;;;27.72;46.93
77120;BME280;66073;47.730;9.352;2023-07-29T11:37:40;96323.72;;;28.31;46.17
77120;BME280;66073;47.730;9.352;2023-07-29T11:40:07;96325.31;;;28.29;45.76
77120;BME280;66073;47.730;9.352;2023-07-29T11:42:36;96317.00;;;28.46;44.72
77120;BME280;66073;47.730;9.352;2023-07-29T11:45:02;96315.47;;;28.35;45.09
77120;BME280;66073;47.730;9.352;2023-07-29T11:47:29;96305.66;;;28.37;44.72
77120;BME280;66073;47.730;9.352;2023-07-29T11:49:58;96306.16;;;27.83;45.43
77120;BME280;66073;47.730;9.352;2023-07-29T11:52:27;96304.97;;;28.12;45.55
77120;BME280;66073;47.730;9.352;2023-07-29T11:54:53;96290.53;;;27.62;46.41
77120;BME280;66073;47.730;9.352;2023-07-29T11:57:19;96303.38;;;28.04;46.25
77120;BME280;66073;47.730;9.352;2023-07-29T11:59:46;96295.41;;;28.48;44.90
77120;BME280;66073;47.730;9.352;2023-07-29T12:02:17;96286.41;;;28.44;44.89
77120;BME280;66073;47.730;9.352;2023-07-29T12:04:44;96286.41;;;29.17;43.16
77120;BME280;66073;47.730;9.352;2023-07-29T12:07:13;96289.94;;;28.41;44.87
77120;BME280;66073;47.730;9.352;2023-07-29T12:09:40;96288.44;;;29.06;43.00
77120;BME280;66073;47.730;9.352;2023-07-29T12:12:07;96286.97;;;28.91;44.56
77120;BME280;66073;47.730;9.352;2023-07-29T12:14:33;96292.19;;;28.75;44.56
77120;BME280;66073;47.730;9.352;2023-07-29T12:17:01;96285.22;;;28.45;45.38
77120;BME280;66073;47.730;9.352;2023-07-29T12:19:38;96301.09;;;27.85;46.75
77120;BME280;66073;47.730;9.352;2023-07-29T12:22:06;96305.81;;;27.38;46.37
77120;BME280;66073;47.730;9.352;2023-07-29T12:24:33;96317.53;;;26.96;47.61
77120;BME280;66073;47.730;9.352;2023-07-29T12:27:00;96319.88;;;26.98;47.55
77120;BME280;66073;47.730;9.352;2023-07-29T12:29:26;96328.34;;;26.57;47.05
77120;BME280;66073;47.730;9.352;2023-07-29T12:32:02;96330.03;;;26.94;48.05
77120;BME280;66073;47.730;9.352;2023-07-29T12:34:30;96321.28;;;26.49;48.76
77120;BME280;66073;47.730;9.352;2023-07-29T12:36:57;96337.66;;;26.35;49.34
77120;BME280;66073;47.730;9.352;2023-07-29T12:39:28;96343.63;;;25.90;51.79
77120;BME280;66073;47.730;9.352;2023-07-29T12:41:55;96336.75;;;25.59;51.70
77120;BME280;66073;47.730;9.352;2023-07-29T12:44:26;96345.19;;;24.99;52.80
77120;BME280;66073;47.730;9.352;2023-07-29T12:46:52;96356.09;;;24.96;54.03
77120;BME280;66073;47.730;9.352;2023-07-29T12:49:18;96366.81;;;24.48;53.67
77120;BME280;66073;47.730;9.352;2023-07-29T12:51:43;96383.22;;;24.18;55.74
77120;BME280;66073;47.730;9.352;2023-07-29T12:54:10;96381.88;;;23.83;54.47
77120;BME280;66073;47.730;9.352;2023-07-29T12:56:35;96391.75;;;24.17;54.08
77120;BME280;66073;47.730;9.352;2023-07-29T12:59:02;96394.66;;;24.05;55.95
77120;BME280;66073;47.730;9.352;2023-07-29T13:01:29;96398.22;;;24.35;55.23
77120;BME280;66073;47.730;9.352;2023-07-29T13:03:55;96376.16;;;24.47;56.56
77120;BME280;66073;47.730;9.352;2023-07-29T13:06:21;96393.44;;;24.88;55.23
77120;BME280;66073;47.730;9.352;2023-07-29T13:08:47;96385.44;;;24.73;54.77
77120;BME280;66073;47.730;9.352;2023-07-29T13:11:14;96384.19;;;24.66;54.84
77120;BME280;66073;47.730;9.352;2023-07-29T13:13:40;96380.22;;;24.60;55.17
77120;BME280;66073;47.730;9.352;2023-07-29T13:16:05;96385.03;;;24.71;54.54